Lilbourn, MO (63862)

1:40 PM CDT on September 29, 2016 (GMT -0500)
SEMO Electric Coop | | Change Station

Elev 338 ft 36.85 °N, 89.58 °W | Updated 18 seconds ago

Overcast
Overcast
64.5 °F
Feels Like 64.5 °F
N
9.0
Wind Variable Wind from NNW
Gusts 9.0 mph

Today
High -- | Low -- °F
--% Chance of Precip.
Yesterday
High -- | Low -- °F
Precip. -- in
Pressure 30.13 in
Visibility 10.0 miles
Clouds Overcast 2300 ft
Dew Point 55 °F
Humidity 71%
Rainfall 0.00 in
Snow Depth Not available.
6:52 AM 6:44 PM
Waning Crescent, 1% visible
METAR KUCY 291835Z AUTO 35011KT 10SM OVC023 17/12 A3013 RMK
Pressure 30.13 in
Visibility 10.0 miles
Clouds Overcast 2300 ft
Dew Point 55 °F
Humidity 71%
Rainfall 0.00 in
Snow Depth Not available.
6:52 AM 6:44 PM
Waning Crescent, 1% visible
METAR KUCY 291835Z AUTO 35011KT 10SM OVC023 17/12 A3013 RMK

10-Day Weather Forecast

Almanac

Astronomy

Sep. 29, 2016 Rise Set
Actual Time
Civil Twilight
Nautical Twilight
Astronomical Twilight
Moon
Length of Visible Light
Length of Day
Tomorrow will be .
, % of the Moon is Illuminated

Today's Extremes

State Highs State Lows

Community

WunderPhotos

Upload Photos

1,942,545 photos uploaded!

WunderBlog® & News

Nearby

Air Quality

  Air Quality AQ Index Pollutant
Not available.

Snow Depth

Station Depth Elevation

Earthquake Activity

City Distance Mag. Time & Date
Minimum magnitude displayed is 2.5.

Coastal Water Temperatures

Place Temperature

Stations

Nearby Weather Stations

Station Location Temp. Windchill Dew Point Humidity Wind Precip. Elev Updated Type
                   

Watches & Warnings

There are currently no watches in effect.